sensor_id;sensor_type;location;lat;lon;timestamp;P1;durP1;ratioP1;P2;durP2;ratioP2
3347;SDS011;1687;49.540;8.574;2022-10-23T00:03:53;9.33;;;2.83;;
3347;SDS011;1687;49.540;8.574;2022-10-23T00:06:27;5.17;;;1.67;;
3347;SDS011;1687;49.540;8.574;2022-10-23T00:08:54;4.13;;;1.50;;
3347;SDS011;1687;49.540;8.574;2022-10-23T00:11:22;3.50;;;1.73;;
3347;SDS011;1687;49.540;8.574;2022-10-23T00:13:50;6.40;;;2.30;;
3347;SDS011;1687;49.540;8.574;2022-10-23T00:16:18;3.03;;;1.83;;
3347;SDS011;1687;49.540;8.574;2022-10-23T00:18:44;6.87;;;3.53;;
3347;SDS011;1687;49.540;8.574;2022-10-23T00:21:10;6.50;;;2.70;;
3347;SDS011;1687;49.540;8.574;2022-10-23T00:23:39;5.13;;;3.03;;
3347;SDS011;1687;49.540;8.574;2022-10-23T00:26:05;6.93;;;2.50;;
3347;SDS011;1687;49.540;8.574;2022-10-23T00:28:32;9.73;;;3.83;;
3347;SDS011;1687;49.540;8.574;2022-10-23T00:31:05;6.80;;;2.83;;
3347;SDS011;1687;49.540;8.574;2022-10-23T00:33:31;4.80;;;2.10;;
3347;SDS011;1687;49.540;8.574;2022-10-23T00:35:57;2.30;;;1.27;;
3347;SDS011;1687;49.540;8.574;2022-10-23T00:38:23;2.83;;;2.23;;
3347;SDS011;1687;49.540;8.574;2022-10-23T00:40:49;2.80;;;2.07;;
3347;SDS011;1687;49.540;8.574;2022-10-23T00:43:16;3.70;;;1.67;;
3347;SDS011;1687;49.540;8.574;2022-10-23T00:45:44;9.73;;;2.97;;
3347;SDS011;1687;49.540;8.574;2022-10-23T00:48:10;8.30;;;2.30;;
3347;SDS011;1687;49.540;8.574;2022-10-23T00:50:37;2.30;;;1.50;;
3347;SDS011;1687;49.540;8.574;2022-10-23T00:53:02;2.97;;;1.80;;
3347;SDS011;1687;49.540;8.574;2022-10-23T00:55:29;3.20;;;1.60;;
3347;SDS011;1687;49.540;8.574;2022-10-23T00:57:57;1.90;;;1.20;;
3347;SDS011;1687;49.540;8.574;2022-10-23T01:00:28;2.63;;;1.60;;
3347;SDS011;1687;49.540;8.574;2022-10-23T01:03:08;3.83;;;1.63;;
3347;SDS011;1687;49.540;8.574;2022-10-23T01:05:36;4.13;;;2.10;;
3347;SDS011;1687;49.540;8.574;2022-10-23T01:08:14;4.43;;;1.90;;
3347;SDS011;1687;49.540;8.574;2022-10-23T01:11:14;4.33;;;3.10;;
3347;SDS011;1687;49.540;8.574;2022-10-23T01:13:53;2.13;;;1.03;;
3347;SDS011;1687;49.540;8.574;2022-10-23T01:19:34;3.57;;;2.20;;
3347;SDS011;1687;49.540;8.574;2022-10-23T01:22:27;4.10;;;2.10;;
3347;SDS011;1687;49.540;8.574;2022-10-23T01:25:28;2.40;;;1.50;;
3347;SDS011;1687;49.540;8.574;2022-10-23T01:28:24;3.40;;;1.47;;
3347;SDS011;1687;49.540;8.574;2022-10-23T01:31:13;5.30;;;2.23;;
3347;SDS011;1687;49.540;8.574;2022-10-23T01:33:48;3.47;;;1.90;;
3347;SDS011;1687;49.540;8.574;2022-10-23T01:36:23;2.47;;;1.53;;
3347;SDS011;1687;49.540;8.574;2022-10-23T01:38:57;3.83;;;1.20;;
3347;SDS011;1687;49.540;8.574;2022-10-23T01:41:28;2.10;;;1.13;;
3347;SDS011;1687;49.540;8.574;2022-10-23T01:44:01;4.33;;;1.27;;
3347;SDS011;1687;49.540;8.574;2022-10-23T01:46:38;3.00;;;0.93;;
3347;SDS011;1687;49.540;8.574;2022-10-23T01:49:07;4.53;;;1.30;;
3347;SDS011;1687;49.540;8.574;2022-10-23T01:51:37;12.20;;;1.80;;
3347;SDS011;1687;49.540;8.574;2022-10-23T01:54:07;1.60;;;0.70;;
3347;SDS011;1687;49.540;8.574;2022-10-23T01:56:34;1.77;;;1.10;;
3347;SDS011;1687;49.540;8.574;2022-10-23T01:59:04;2.33;;;0.90;;
3347;SDS011;1687;49.540;8.574;2022-10-23T02:01:35;1.77;;;0.90;;
3347;SDS011;1687;49.540;8.574;2022-10-23T02:04:04;2.93;;;0.90;;
3347;SDS011;1687;49.540;8.574;2022-10-23T02:06:34;4.80;;;1.57;;
3347;SDS011;1687;49.540;8.574;2022-10-23T02:09:00;2.53;;;1.67;;
3347;SDS011;1687;49.540;8.574;2022-10-23T02:11:26;1.80;;;1.00;;
3347;SDS011;1687;49.540;8.574;2022-10-23T02:16:39;18.10;;;2.20;;
3347;SDS011;1687;49.540;8.574;2022-10-23T02:19:24;10.30;;;1.17;;
3347;SDS011;1687;49.540;8.574;2022-10-23T02:24:37;1.97;;;0.83;;
3347;SDS011;1687;49.540;8.574;2022-10-23T02:27:17;2.53;;;1.40;;
3347;SDS011;1687;49.540;8.574;2022-10-23T02:29:55;3.13;;;1.63;;
3347;SDS011;1687;49.540;8.574;2022-10-23T02:32:30;2.73;;;1.33;;
3347;SDS011;1687;49.540;8.574;2022-10-23T02:34:58;2.90;;;1.57;;
3347;SDS011;1687;49.540;8.574;2022-10-23T02:37:24;3.17;;;1.40;;
3347;SDS011;1687;49.540;8.574;2022-10-23T02:39:49;1.80;;;1.10;;
3347;SDS011;1687;49.540;8.574;2022-10-23T02:42:27;2.60;;;1.03;;
3347;SDS011;1687;49.540;8.574;2022-10-23T02:56:22;3.00;;;1.73;;
3347;SDS011;1687;49.540;8.574;2022-10-23T02:59:08;3.73;;;1.07;;
3347;SDS011;1687;49.540;8.574;2022-10-23T03:01:46;2.47;;;1.00;;
3347;SDS011;1687;49.540;8.574;2022-10-23T03:04:16;2.97;;;1.70;;
3347;SDS011;1687;49.540;8.574;2022-10-23T03:06:45;4.20;;;2.87;;
3347;SDS011;1687;49.540;8.574;2022-10-23T03:09:11;7.57;;;1.47;;
3347;SDS011;1687;49.540;8.574;2022-10-23T03:11:37;2.50;;;1.10;;
3347;SDS011;1687;49.540;8.574;2022-10-23T03:14:02;2.47;;;1.57;;
3347;SDS011;1687;49.540;8.574;2022-10-23T03:16:28;9.03;;;1.63;;
3347;SDS011;1687;49.540;8.574;2022-10-23T03:18:54;1.40;;;0.70;;
3347;SDS011;1687;49.540;8.574;2022-10-23T03:21:20;2.60;;;1.07;;
3347;SDS011;1687;49.540;8.574;2022-10-23T03:23:45;2.30;;;1.20;;
3347;SDS011;1687;49.540;8.574;2022-10-23T03:26:11;4.67;;;2.27;;
3347;SDS011;1687;49.540;8.574;2022-10-23T03:28:37;2.17;;;1.33;;
3347;SDS011;1687;49.540;8.574;2022-10-23T03:31:03;5.47;;;1.70;;
3347;SDS011;1687;49.540;8.574;2022-10-23T03:33:29;2.03;;;1.03;;
3347;SDS011;1687;49.540;8.574;2022-10-23T03:35:55;2.17;;;0.80;;
3347;SDS011;1687;49.540;8.574;2022-10-23T03:38:21;2.00;;;1.00;;
3347;SDS011;1687;49.540;8.574;2022-10-23T03:40:47;3.03;;;1.23;;
3347;SDS011;1687;49.540;8.574;2022-10-23T03:43:12;2.57;;;1.33;;
3347;SDS011;1687;49.540;8.574;2022-10-23T03:45:38;3.70;;;1.97;;
3347;SDS011;1687;49.540;8.574;2022-10-23T03:48:05;2.67;;;1.40;;
3347;SDS011;1687;49.540;8.574;2022-10-23T03:50:31;10.23;;;2.10;;
3347;SDS011;1687;49.540;8.574;2022-10-23T03:52:59;13.23;;;1.57;;
3347;SDS011;1687;49.540;8.574;2022-10-23T03:55:25;3.10;;;1.30;;
3347;SDS011;1687;49.540;8.574;2022-10-23T03:57:51;1.60;;;0.90;;
3347;SDS011;1687;49.540;8.574;2022-10-23T04:00:18;1.70;;;0.73;;
3347;SDS011;1687;49.540;8.574;2022-10-23T04:02:44;7.00;;;1.77;;
3347;SDS011;1687;49.540;8.574;2022-10-23T04:05:10;4.33;;;1.13;;
3347;SDS011;1687;49.540;8.574;2022-10-23T04:07:36;2.90;;;1.20;;
3347;SDS011;1687;49.540;8.574;2022-10-23T04:10:02;2.43;;;1.23;;
3347;SDS011;1687;49.540;8.574;2022-10-23T04:12:29;3.30;;;1.30;;
3347;SDS011;1687;49.540;8.574;2022-10-23T04:14:54;1.60;;;0.90;;
3347;SDS011;1687;49.540;8.574;2022-10-23T04:17:20;1.90;;;1.00;;
3347;SDS011;1687;49.540;8.574;2022-10-23T04:19:46;1.93;;;1.20;;
3347;SDS011;1687;49.540;8.574;2022-10-23T04:22:11;2.47;;;1.30;;
3347;SDS011;1687;49.540;8.574;2022-10-23T04:24:37;1.30;;;0.80;;
3347;SDS011;1687;49.540;8.574;2022-10-23T04:27:03;1.97;;;1.27;;
3347;SDS011;1687;49.540;8.574;2022-10-23T04:29:28;2.33;;;1.00;;
3347;SDS011;1687;49.540;8.574;2022-10-23T04:31:56;4.83;;;1.90;;
3347;SDS011;1687;49.540;8.574;2022-10-23T04:34:22;2.90;;;1.20;;
3347;SDS011;1687;49.540;8.574;2022-10-23T04:36:47;1.70;;;1.07;;
3347;SDS011;1687;49.540;8.574;2022-10-23T04:39:13;14.73;;;1.47;;
3347;SDS011;1687;49.540;8.574;2022-10-23T04:41:39;2.07;;;1.27;;
3347;SDS011;1687;49.540;8.574;2022-10-23T04:44:05;5.20;;;1.67;;
3347;SDS011;1687;49.540;8.574;2022-10-23T04:46:31;1.80;;;1.17;;
3347;SDS011;1687;49.540;8.574;2022-10-23T04:48:57;4.20;;;1.27;;
3347;SDS011;1687;49.540;8.574;2022-10-23T04:51:22;3.50;;;2.00;;
3347;SDS011;1687;49.540;8.574;2022-10-23T04:53:48;2.80;;;1.17;;
3347;SDS011;1687;49.540;8.574;2022-10-23T04:56:14;3.33;;;1.20;;
3347;SDS011;1687;49.540;8.574;2022-10-23T04:58:40;4.07;;;1.63;;
3347;SDS011;1687;49.540;8.574;2022-10-23T05:01:06;4.00;;;1.93;;
3347;SDS011;1687;49.540;8.574;2022-10-23T05:03:36;2.57;;;1.10;;
3347;SDS011;1687;49.540;8.574;2022-10-23T05:06:02;2.77;;;1.60;;
3347;SDS011;1687;49.540;8.574;2022-10-23T05:08:29;7.97;;;1.30;;
3347;SDS011;1687;49.540;8.574;2022-10-23T05:10:55;3.33;;;1.20;;
3347;SDS011;1687;49.540;8.574;2022-10-23T05:13:21;4.97;;;2.20;;
3347;SDS011;1687;49.540;8.574;2022-10-23T05:15:48;7.13;;;2.47;;
3347;SDS011;1687;49.540;8.574;2022-10-23T05:20:49;2.90;;;1.77;;
3347;SDS011;1687;49.540;8.574;2022-10-23T05:23:19;5.07;;;2.00;;
3347;SDS011;1687;49.540;8.574;2022-10-23T05:25:48;4.43;;;1.37;;
3347;SDS011;1687;49.540;8.574;2022-10-23T05:28:13;2.20;;;1.00;;
3347;SDS011;1687;49.540;8.574;2022-10-23T05:30:39;4.70;;;1.80;;
3347;SDS011;1687;49.540;8.574;2022-10-23T05:33:05;2.50;;;1.03;;
3347;SDS011;1687;49.540;8.574;2022-10-23T05:35:31;2.90;;;1.43;;
3347;SDS011;1687;49.540;8.574;2022-10-23T05:37:57;6.90;;;2.50;;
3347;SDS011;1687;49.540;8.574;2022-10-23T05:40:25;3.73;;;1.73;;
3347;SDS011;1687;49.540;8.574;2022-10-23T05:42:51;2.10;;;1.10;;
3347;SDS011;1687;49.540;8.574;2022-10-23T05:45:17;2.70;;;0.80;;
3347;SDS011;1687;49.540;8.574;2022-10-23T05:47:43;2.40;;;1.27;;
3347;SDS011;1687;49.540;8.574;2022-10-23T05:50:09;3.10;;;1.47;;
3347;SDS011;1687;49.540;8.574;2022-10-23T05:52:35;2.03;;;1.50;;
3347;SDS011;1687;49.540;8.574;2022-10-23T05:55:01;2.17;;;1.07;;
3347;SDS011;1687;49.540;8.574;2022-10-23T05:57:27;2.67;;;1.27;;
3347;SDS011;1687;49.540;8.574;2022-10-23T05:59:56;19.10;;;2.30;;
3347;SDS011;1687;49.540;8.574;2022-10-23T06:02:22;1.43;;;0.80;;
3347;SDS011;1687;49.540;8.574;2022-10-23T06:04:47;10.63;;;2.07;;
3347;SDS011;1687;49.540;8.574;2022-10-23T06:07:13;5.73;;;2.50;;
3347;SDS011;1687;49.540;8.574;2022-10-23T06:09:39;3.87;;;1.60;;
3347;SDS011;1687;49.540;8.574;2022-10-23T06:12:04;3.50;;;1.73;;
3347;SDS011;1687;49.540;8.574;2022-10-23T06:14:30;1.60;;;0.80;;
3347;SDS011;1687;49.540;8.574;2022-10-23T06:16:56;7.63;;;3.10;;
3347;SDS011;1687;49.540;8.574;2022-10-23T06:19:21;2.83;;;2.17;;
3347;SDS011;1687;49.540;8.574;2022-10-23T06:21:47;3.17;;;2.07;;
3347;SDS011;1687;49.540;8.574;2022-10-23T06:24:13;5.70;;;1.77;;
3347;SDS011;1687;49.540;8.574;2022-10-23T06:26:39;14.93;;;2.87;;
3347;SDS011;1687;49.540;8.574;2022-10-23T06:29:05;4.97;;;3.43;;
3347;SDS011;1687;49.540;8.574;2022-10-23T06:31:31;3.97;;;2.10;;
3347;SDS011;1687;49.540;8.574;2022-10-23T06:33:57;3.40;;;2.20;;
3347;SDS011;1687;49.540;8.574;2022-10-23T06:36:23;8.67;;;4.83;;
3347;SDS011;1687;49.540;8.574;2022-10-23T06:38:50;8.50;;;3.43;;
3347;SDS011;1687;49.540;8.574;2022-10-23T06:41:17;6.27;;;2.87;;
3347;SDS011;1687;49.540;8.574;2022-10-23T06:43:48;3.27;;;2.40;;
3347;SDS011;1687;49.540;8.574;2022-10-23T06:46:15;10.83;;;2.60;;
3347;SDS011;1687;49.540;8.574;2022-10-23T06:48:42;4.00;;;2.33;;
3347;SDS011;1687;49.540;8.574;2022-10-23T06:51:09;4.83;;;2.70;;
3347;SDS011;1687;49.540;8.574;2022-10-23T06:53:38;4.17;;;1.93;;
3347;SDS011;1687;49.540;8.574;2022-10-23T06:56:05;10.97;;;5.83;;
3347;SDS011;1687;49.540;8.574;2022-10-23T06:58:32;16.80;;;4.60;;
3347;SDS011;1687;49.540;8.574;2022-10-23T07:01:00;4.83;;;1.90;;
3347;SDS011;1687;49.540;8.574;2022-10-23T07:03:27;2.93;;;1.70;;
3347;SDS011;1687;49.540;8.574;2022-10-23T07:05:53;7.30;;;2.93;;
3347;SDS011;1687;49.540;8.574;2022-10-23T07:08:19;3.13;;;1.37;;
3347;SDS011;1687;49.540;8.574;2022-10-23T07:10:45;5.53;;;2.47;;
3347;SDS011;1687;49.540;8.574;2022-10-23T07:13:12;3.60;;;1.50;;
3347;SDS011;1687;49.540;8.574;2022-10-23T07:15:38;3.80;;;2.00;;
3347;SDS011;1687;49.540;8.574;2022-10-23T07:18:05;3.87;;;1.37;;
3347;SDS011;1687;49.540;8.574;2022-10-23T07:20:31;6.47;;;1.87;;
3347;SDS011;1687;49.540;8.574;2022-10-23T07:22:57;4.63;;;1.90;;
3347;SDS011;1687;49.540;8.574;2022-10-23T07:25:23;4.10;;;2.00;;
3347;SDS011;1687;49.540;8.574;2022-10-23T07:27:50;6.23;;;2.90;;
3347;SDS011;1687;49.540;8.574;2022-10-23T07:30:17;6.00;;;2.90;;
3347;SDS011;1687;49.540;8.574;2022-10-23T07:32:43;5.23;;;1.63;;
3347;SDS011;1687;49.540;8.574;2022-10-23T07:35:10;2.30;;;1.13;;
3347;SDS011;1687;49.540;8.574;2022-10-23T07:37:37;1.70;;;1.00;;
3347;SDS011;1687;49.540;8.574;2022-10-23T07:40:03;2.63;;;1.33;;
3347;SDS011;1687;49.540;8.574;2022-10-23T07:42:30;1.80;;;1.30;;
3347;SDS011;1687;49.540;8.574;2022-10-23T07:44:56;3.23;;;1.30;;
3347;SDS011;1687;49.540;8.574;2022-10-23T07:47:21;11.33;;;2.60;;
3347;SDS011;1687;49.540;8.574;2022-10-23T07:49:47;3.03;;;1.67;;
3347;SDS011;1687;49.540;8.574;2022-10-23T07:52:13;1.93;;;1.00;;
3347;SDS011;1687;49.540;8.574;2022-10-23T07:54:39;4.80;;;2.00;;
3347;SDS011;1687;49.540;8.574;2022-10-23T07:57:04;3.73;;;2.30;;
3347;SDS011;1687;49.540;8.574;2022-10-23T07:59:31;4.33;;;2.23;;
3347;SDS011;1687;49.540;8.574;2022-10-23T08:01:58;9.00;;;2.50;;
3347;SDS011;1687;49.540;8.574;2022-10-23T08:04:24;3.70;;;1.20;;
3347;SDS011;1687;49.540;8.574;2022-10-23T08:06:50;4.80;;;2.50;;
3347;SDS011;1687;49.540;8.574;2022-10-23T08:09:16;4.10;;;2.53;;
3347;SDS011;1687;49.540;8.574;2022-10-23T08:11:41;3.20;;;2.13;;
3347;SDS011;1687;49.540;8.574;2022-10-23T08:14:07;10.10;;;4.40;;
3347;SDS011;1687;49.540;8.574;2022-10-23T08:16:35;12.23;;;3.40;;
3347;SDS011;1687;49.540;8.574;2022-10-23T08:19:04;5.80;;;2.27;;
3347;SDS011;1687;49.540;8.574;2022-10-23T08:21:31;6.87;;;3.87;;
3347;SDS011;1687;49.540;8.574;2022-10-23T08:23:58;6.60;;;2.40;;
3347;SDS011;1687;49.540;8.574;2022-10-23T08:26:26;4.13;;;2.00;;
3347;SDS011;1687;49.540;8.574;2022-10-23T08:28:57;7.50;;;3.47;;
3347;SDS011;1687;49.540;8.574;2022-10-23T08:31:23;7.30;;;3.10;;
3347;SDS011;1687;49.540;8.574;2022-10-23T08:33:49;10.80;;;3.97;;
3347;SDS011;1687;49.540;8.574;2022-10-23T08:36:22;8.93;;;3.33;;
3347;SDS011;1687;49.540;8.574;2022-10-23T08:38:54;12.50;;;4.07;;
3347;SDS011;1687;49.540;8.574;2022-10-23T08:46:58;11.00;;;5.83;;
3347;SDS011;1687;49.540;8.574;2022-10-23T08:49:46;8.77;;;3.93;;
3347;SDS011;1687;49.540;8.574;2022-10-23T08:57:42;8.37;;;4.60;;
3347;SDS011;1687;49.540;8.574;2022-10-23T09:00:17;11.80;;;3.30;;
3347;SDS011;1687;49.540;8.574;2022-10-23T09:02:44;7.53;;;4.00;;
3347;SDS011;1687;49.540;8.574;2022-10-23T09:05:14;5.97;;;3.27;;
3347;SDS011;1687;49.540;8.574;2022-10-23T09:08:00;8.80;;;3.07;;
3347;SDS011;1687;49.540;8.574;2022-10-23T09:11:00;6.33;;;3.40;;
3347;SDS011;1687;49.540;8.574;2022-10-23T09:14:04;5.87;;;4.00;;
3347;SDS011;1687;49.540;8.574;2022-10-23T09:22:45;4.90;;;3.10;;
3347;SDS011;1687;49.540;8.574;2022-10-23T09:25:59;10.80;;;2.83;;
3347;SDS011;1687;49.540;8.574;2022-10-23T09:28:04;4.63;;;3.13;;
3347;SDS011;1687;49.540;8.574;2022-10-23T09:30:32;10.20;;;3.80;;
3347;SDS011;1687;49.540;8.574;2022-10-23T09:33:00;8.37;;;4.30;;
3347;SDS011;1687;49.540;8.574;2022-10-23T09:36:00;6.37;;;2.63;;
3347;SDS011;1687;49.540;8.574;2022-10-23T09:38:34;5.53;;;3.30;;
3347;SDS011;1687;49.540;8.574;2022-10-23T09:41:15;4.80;;;2.43;;
3347;SDS011;1687;49.540;8.574;2022-10-23T09:49:22;5.47;;;2.97;;
3347;SDS011;1687;49.540;8.574;2022-10-23T09:54:30;10.20;;;2.93;;
3347;SDS011;1687;49.540;8.574;2022-10-23T10:02:55;6.83;;;3.67;;
3347;SDS011;1687;49.540;8.574;2022-10-23T10:05:31;5.90;;;2.97;;
3347;SDS011;1687;49.540;8.574;2022-10-23T10:08:11;5.90;;;3.00;;
3347;SDS011;1687;49.540;8.574;2022-10-23T10:10:46;6.53;;;2.70;;
3347;SDS011;1687;49.540;8.574;2022-10-23T10:19:08;13.53;;;4.37;;
3347;SDS011;1687;49.540;8.574;2022-10-23T10:25:29;9.30;;;3.20;;
3347;SDS011;1687;49.540;8.574;2022-10-23T10:28:17;6.03;;;2.83;;
3347;SDS011;1687;49.540;8.574;2022-10-23T10:36:54;7.83;;;3.77;;
3347;SDS011;1687;49.540;8.574;2022-10-23T10:39:39;8.67;;;3.40;;
3347;SDS011;1687;49.540;8.574;2022-10-23T10:45:38;12.67;;;3.13;;
3347;SDS011;1687;49.540;8.574;2022-10-23T10:50:56;5.97;;;2.87;;
3347;SDS011;1687;49.540;8.574;2022-10-23T10:53:53;8.23;;;3.20;;
3347;SDS011;1687;49.540;8.574;2022-10-23T10:56:51;8.00;;;3.60;;
3347;SDS011;1687;49.540;8.574;2022-10-23T11:02:01;6.20;;;2.90;;
3347;SDS011;1687;49.540;8.574;2022-10-23T11:04:54;6.63;;;3.10;;
3347;SDS011;1687;49.540;8.574;2022-10-23T11:07:29;13.07;;;2.53;;
3347;SDS011;1687;49.540;8.574;2022-10-23T11:10:05;3.63;;;1.80;;
3347;SDS011;1687;49.540;8.574;2022-10-23T11:12:41;5.70;;;3.30;;
3347;SDS011;1687;49.540;8.574;2022-10-23T11:15:20;8.00;;;2.00;;
3347;SDS011;1687;49.540;8.574;2022-10-23T11:18:04;5.57;;;2.40;;
3347;SDS011;1687;49.540;8.574;2022-10-23T11:26:25;3.40;;;1.80;;
3347;SDS011;1687;49.540;8.574;2022-10-23T11:38:37;5.10;;;1.83;;
3347;SDS011;1687;49.540;8.574;2022-10-23T11:41:06;5.00;;;2.23;;
3347;SDS011;1687;49.540;8.574;2022-10-23T11:43:50;6.00;;;3.00;;
3347;SDS011;1687;49.540;8.574;2022-10-23T11:48:47;3.17;;;1.83;;
3347;SDS011;1687;49.540;8.574;2022-10-23T11:51:32;9.50;;;2.63;;
3347;SDS011;1687;49.540;8.574;2022-10-23T12:02:34;8.60;;;2.70;;
3347;SDS011;1687;49.540;8.574;2022-10-23T12:05:03;4.10;;;2.50;;
3347;SDS011;1687;49.540;8.574;2022-10-23T12:07:46;4.97;;;2.80;;
3347;SDS011;1687;49.540;8.574;2022-10-23T12:10:28;3.60;;;1.80;;
3347;SDS011;1687;49.540;8.574;2022-10-23T12:13:04;6.17;;;2.80;;
3347;SDS011;1687;49.540;8.574;2022-10-23T12:15:53;3.20;;;1.93;;
3347;SDS011;1687;49.540;8.574;2022-10-23T12:18:20;6.50;;;2.00;;
3347;SDS011;1687;49.540;8.574;2022-10-23T12:20:47;6.93;;;1.67;;
3347;SDS011;1687;49.540;8.574;2022-10-23T12:23:34;2.40;;;1.20;;
3347;SDS011;1687;49.540;8.574;2022-10-23T12:26:40;2.93;;;1.40;;
3347;SDS011;1687;49.540;8.574;2022-10-23T12:31:45;2.73;;;1.40;;
3347;SDS011;1687;49.540;8.574;2022-10-23T12:40:20;3.50;;;1.23;;
3347;SDS011;1687;49.540;8.574;2022-10-23T12:42:50;3.07;;;1.27;;
3347;SDS011;1687;49.540;8.574;2022-10-23T12:45:21;4.70;;;1.53;;
3347;SDS011;1687;49.540;8.574;2022-10-23T12:47:56;4.10;;;1.30;;
3347;SDS011;1687;49.540;8.574;2022-10-23T12:50:27;2.53;;;1.80;;
3347;SDS011;1687;49.540;8.574;2022-10-23T12:52:56;2.90;;;1.33;;
3347;SDS011;1687;49.540;8.574;2022-10-23T12:55:33;6.30;;;1.60;;
3347;SDS011;1687;49.540;8.574;2022-10-23T13:00:55;3.73;;;1.27;;
3347;SDS011;1687;49.540;8.574;2022-10-23T13:03:24;2.87;;;1.53;;
3347;SDS011;1687;49.540;8.574;2022-10-23T13:05:52;2.63;;;1.10;;
3347;SDS011;1687;49.540;8.574;2022-10-23T13:08:20;2.37;;;1.47;;
3347;SDS011;1687;49.540;8.574;2022-10-23T13:10:47;3.30;;;1.47;;
3347;SDS011;1687;49.540;8.574;2022-10-23T13:13:16;2.03;;;1.00;;
3347;SDS011;1687;49.540;8.574;2022-10-23T13:15:47;1.40;;;0.73;;
3347;SDS011;1687;49.540;8.574;2022-10-23T13:18:13;1.70;;;0.80;;
3347;SDS011;1687;49.540;8.574;2022-10-23T13:20:41;1.40;;;0.77;;
3347;SDS011;1687;49.540;8.574;2022-10-23T13:25:58;1.83;;;1.00;;
3347;SDS011;1687;49.540;8.574;2022-10-23T13:30:58;3.20;;;1.17;;
3347;SDS011;1687;49.540;8.574;2022-10-23T13:33:45;2.27;;;0.90;;
3347;SDS011;1687;49.540;8.574;2022-10-23T13:36:36;1.63;;;0.90;;
3347;SDS011;1687;49.540;8.574;2022-10-23T13:39:36;2.37;;;0.97;;
3347;SDS011;1687;49.540;8.574;2022-10-23T13:42:10;1.43;;;0.80;;
3347;SDS011;1687;49.540;8.574;2022-10-23T13:44:38;1.20;;;0.70;;
3347;SDS011;1687;49.540;8.574;2022-10-23T13:47:04;1.50;;;0.80;;
3347;SDS011;1687;49.540;8.574;2022-10-23T13:49:30;1.40;;;0.90;;
3347;SDS011;1687;49.540;8.574;2022-10-23T13:51:56;1.43;;;0.80;;
3347;SDS011;1687;49.540;8.574;2022-10-23T13:54:26;1.30;;;0.77;;
3347;SDS011;1687;49.540;8.574;2022-10-23T13:56:53;3.20;;;1.27;;
3347;SDS011;1687;49.540;8.574;2022-10-23T13:59:20;1.00;;;0.60;;
3347;SDS011;1687;49.540;8.574;2022-10-23T14:01:46;2.70;;;1.10;;
3347;SDS011;1687;49.540;8.574;2022-10-23T14:04:14;1.70;;;0.80;;
3347;SDS011;1687;49.540;8.574;2022-10-23T14:06:41;1.80;;;0.80;;
3347;SDS011;1687;49.540;8.574;2022-10-23T14:09:12;2.90;;;1.23;;
3347;SDS011;1687;49.540;8.574;2022-10-23T14:11:40;3.83;;;1.10;;
3347;SDS011;1687;49.540;8.574;2022-10-23T14:14:06;1.37;;;0.70;;
3347;SDS011;1687;49.540;8.574;2022-10-23T14:16:32;1.30;;;0.60;;
3347;SDS011;1687;49.540;8.574;2022-10-23T14:18:58;1.50;;;0.70;;
3347;SDS011;1687;49.540;8.574;2022-10-23T14:21:24;2.13;;;0.80;;
3347;SDS011;1687;49.540;8.574;2022-10-23T14:23:50;1.53;;;1.10;;
3347;SDS011;1687;49.540;8.574;2022-10-23T14:26:18;1.50;;;0.80;;
3347;SDS011;1687;49.540;8.574;2022-10-23T14:28:47;3.00;;;1.53;;
3347;SDS011;1687;49.540;8.574;2022-10-23T14:31:16;5.93;;;2.60;;
3347;SDS011;1687;49.540;8.574;2022-10-23T14:33:43;3.73;;;1.13;;
3347;SDS011;1687;49.540;8.574;2022-10-23T14:36:10;1.47;;;0.83;;
3347;SDS011;1687;49.540;8.574;2022-10-23T14:38:36;4.97;;;1.53;;
3347;SDS011;1687;49.540;8.574;2022-10-23T14:41:02;3.20;;;1.10;;
3347;SDS011;1687;49.540;8.574;2022-10-23T14:43:34;5.83;;;2.83;;
3347;SDS011;1687;49.540;8.574;2022-10-23T14:46:07;7.73;;;3.43;;
3347;SDS011;1687;49.540;8.574;2022-10-23T14:48:41;3.40;;;1.70;;
3347;SDS011;1687;49.540;8.574;2022-10-23T14:51:17;4.97;;;1.30;;
3347;SDS011;1687;49.540;8.574;2022-10-23T14:53:53;6.50;;;1.83;;
3347;SDS011;1687;49.540;8.574;2022-10-23T14:56:21;2.13;;;0.93;;
3347;SDS011;1687;49.540;8.574;2022-10-23T14:58:47;2.53;;;1.47;;
3347;SDS011;1687;49.540;8.574;2022-10-23T15:01:13;2.13;;;0.90;;
3347;SDS011;1687;49.540;8.574;2022-10-23T15:03:38;1.97;;;1.20;;
3347;SDS011;1687;49.540;8.574;2022-10-23T15:06:05;2.33;;;1.13;;
3347;SDS011;1687;49.540;8.574;2022-10-23T15:08:31;2.00;;;0.93;;
3347;SDS011;1687;49.540;8.574;2022-10-23T15:10:58;4.50;;;1.37;;
3347;SDS011;1687;49.540;8.574;2022-10-23T15:13:25;2.40;;;1.23;;
3347;SDS011;1687;49.540;8.574;2022-10-23T15:15:59;1.73;;;0.80;;
3347;SDS011;1687;49.540;8.574;2022-10-23T15:18:29;4.10;;;1.30;;
3347;SDS011;1687;49.540;8.574;2022-10-23T15:20:54;3.97;;;1.00;;
3347;SDS011;1687;49.540;8.574;2022-10-23T15:23:20;2.90;;;1.57;;
3347;SDS011;1687;49.540;8.574;2022-10-23T15:25:53;1.53;;;0.80;;
3347;SDS011;1687;49.540;8.574;2022-10-23T15:28:23;6.00;;;1.50;;
3347;SDS011;1687;49.540;8.574;2022-10-23T15:30:49;4.63;;;2.43;;
3347;SDS011;1687;49.540;8.574;2022-10-23T15:33:15;3.20;;;1.13;;
3347;SDS011;1687;49.540;8.574;2022-10-23T15:35:41;1.50;;;0.80;;
3347;SDS011;1687;49.540;8.574;2022-10-23T15:38:06;1.30;;;0.70;;
3347;SDS011;1687;49.540;8.574;2022-10-23T15:40:32;9.47;;;1.70;;
3347;SDS011;1687;49.540;8.574;2022-10-23T15:42:58;3.73;;;1.13;;
3347;SDS011;1687;49.540;8.574;2022-10-23T15:45:23;2.60;;;1.23;;
3347;SDS011;1687;49.540;8.574;2022-10-23T15:47:49;3.43;;;1.63;;
3347;SDS011;1687;49.540;8.574;2022-10-23T15:50:15;3.77;;;1.83;;
3347;SDS011;1687;49.540;8.574;2022-10-23T15:52:41;5.47;;;2.27;;
3347;SDS011;1687;49.540;8.574;2022-10-23T15:55:07;4.90;;;1.90;;
3347;SDS011;1687;49.540;8.574;2022-10-23T15:57:37;7.43;;;2.27;;
3347;SDS011;1687;49.540;8.574;2022-10-23T16:00:07;2.27;;;1.53;;
3347;SDS011;1687;49.540;8.574;2022-10-23T16:02:34;3.27;;;1.40;;
3347;SDS011;1687;49.540;8.574;2022-10-23T16:05:01;4.27;;;2.43;;
3347;SDS011;1687;49.540;8.574;2022-10-23T16:07:27;3.80;;;2.00;;
3347;SDS011;1687;49.540;8.574;2022-10-23T16:09:53;4.47;;;1.90;;
3347;SDS011;1687;49.540;8.574;2022-10-23T16:12:19;8.23;;;1.60;;
3347;SDS011;1687;49.540;8.574;2022-10-23T16:14:45;5.53;;;2.27;;
3347;SDS011;1687;49.540;8.574;2022-10-23T16:17:11;3.90;;;1.93;;
3347;SDS011;1687;49.540;8.574;2022-10-23T16:19:39;8.00;;;1.77;;
3347;SDS011;1687;49.540;8.574;2022-10-23T16:22:06;2.93;;;1.50;;
3347;SDS011;1687;49.540;8.574;2022-10-23T16:24:32;5.03;;;1.80;;
3347;SDS011;1687;49.540;8.574;2022-10-23T16:26:58;19.10;;;2.40;;
3347;SDS011;1687;49.540;8.574;2022-10-23T16:29:25;4.17;;;2.50;;
3347;SDS011;1687;49.540;8.574;2022-10-23T16:31:51;3.73;;;2.10;;
3347;SDS011;1687;49.540;8.574;2022-10-23T16:34:18;3.40;;;1.77;;
3347;SDS011;1687;49.540;8.574;2022-10-23T16:36:44;4.50;;;1.57;;
3347;SDS011;1687;49.540;8.574;2022-10-23T16:39:11;6.00;;;2.60;;
3347;SDS011;1687;49.540;8.574;2022-10-23T16:41:39;5.63;;;2.20;;
3347;SDS011;1687;49.540;8.574;2022-10-23T16:44:05;4.37;;;1.87;;
3347;SDS011;1687;49.540;8.574;2022-10-23T16:46:30;5.97;;;3.23;;
3347;SDS011;1687;49.540;8.574;2022-10-23T16:48:58;2.90;;;2.10;;
3347;SDS011;1687;49.540;8.574;2022-10-23T16:51:24;3.60;;;2.07;;
3347;SDS011;1687;49.540;8.574;2022-10-23T16:53:52;3.93;;;2.63;;
3347;SDS011;1687;49.540;8.574;2022-10-23T16:56:19;4.67;;;2.50;;
3347;SDS011;1687;49.540;8.574;2022-10-23T16:58:47;4.57;;;1.67;;
3347;SDS011;1687;49.540;8.574;2022-10-23T17:01:15;2.63;;;1.80;;
3347;SDS011;1687;49.540;8.574;2022-10-23T17:03:45;6.80;;;2.33;;
3347;SDS011;1687;49.540;8.574;2022-10-23T17:06:14;15.60;;;3.07;;
3347;SDS011;1687;49.540;8.574;2022-10-23T17:08:43;3.57;;;1.90;;
3347;SDS011;1687;49.540;8.574;2022-10-23T17:11:17;5.27;;;2.20;;
3347;SDS011;1687;49.540;8.574;2022-10-23T17:13:49;3.57;;;2.37;;
3347;SDS011;1687;49.540;8.574;2022-10-23T17:19:02;4.97;;;2.80;;
3347;SDS011;1687;49.540;8.574;2022-10-23T17:21:31;5.83;;;2.60;;
3347;SDS011;1687;49.540;8.574;2022-10-23T17:23:59;4.73;;;1.90;;
3347;SDS011;1687;49.540;8.574;2022-10-23T17:26:25;3.27;;;1.40;;
3347;SDS011;1687;49.540;8.574;2022-10-23T17:28:52;3.77;;;2.10;;
3347;SDS011;1687;49.540;8.574;2022-10-23T17:31:22;3.70;;;1.50;;
3347;SDS011;1687;49.540;8.574;2022-10-23T17:33:55;4.00;;;1.60;;
3347;SDS011;1687;49.540;8.574;2022-10-23T17:36:24;3.83;;;1.70;;
3347;SDS011;1687;49.540;8.574;2022-10-23T17:38:51;3.33;;;1.40;;